sensor_id;sensor_type;location;lat;lon;timestamp;P1;durP1;ratioP1;P2;durP2;ratioP2
40052;SDS011;25758;48.200;16.338;2023-05-07T00:01:49;1.90;;;0.50;;
40052;SDS011;25758;48.200;16.338;2023-05-07T00:04:15;3.63;;;0.40;;
40052;SDS011;25758;48.200;16.338;2023-05-07T00:06:41;5.70;;;0.68;;
40052;SDS011;25758;48.200;16.338;2023-05-07T00:09:06;1.00;;;0.55;;
40052;SDS011;25758;48.200;16.338;2023-05-07T00:11:32;1.80;;;0.30;;
40052;SDS011;25758;48.200;16.338;2023-05-07T00:13:58;1.20;;;0.50;;
40052;SDS011;25758;48.200;16.338;2023-05-07T00:16:24;4.03;;;0.75;;
40052;SDS011;25758;48.200;16.338;2023-05-07T00:18:50;1.55;;;0.70;;
40052;SDS011;25758;48.200;16.338;2023-05-07T00:21:16;2.15;;;1.02;;
40052;SDS011;25758;48.200;16.338;2023-05-07T00:23:41;4.50;;;1.02;;
40052;SDS011;25758;48.200;16.338;2023-05-07T00:26:07;2.13;;;1.23;;
40052;SDS011;25758;48.200;16.338;2023-05-07T00:28:32;2.10;;;1.25;;
40052;SDS011;25758;48.200;16.338;2023-05-07T00:30:58;2.28;;;0.90;;
40052;SDS011;25758;48.200;16.338;2023-05-07T00:33:24;3.38;;;1.63;;
40052;SDS011;25758;48.200;16.338;2023-05-07T00:35:51;6.97;;;1.77;;
40052;SDS011;25758;48.200;16.338;2023-05-07T00:38:17;5.35;;;2.00;;
40052;SDS011;25758;48.200;16.338;2023-05-07T00:40:42;4.65;;;2.13;;
40052;SDS011;25758;48.200;16.338;2023-05-07T00:43:08;4.40;;;2.72;;
40052;SDS011;25758;48.200;16.338;2023-05-07T00:45:33;4.22;;;2.22;;
40052;SDS011;25758;48.200;16.338;2023-05-07T00:48:00;3.63;;;2.20;;
40052;SDS011;25758;48.200;16.338;2023-05-07T00:50:27;3.08;;;1.80;;
40052;SDS011;25758;48.200;16.338;2023-05-07T00:52:53;3.83;;;1.98;;
40052;SDS011;25758;48.200;16.338;2023-05-07T00:55:20;4.32;;;1.88;;
40052;SDS011;25758;48.200;16.338;2023-05-07T00:57:47;3.45;;;2.20;;
40052;SDS011;25758;48.200;16.338;2023-05-07T01:00:13;3.40;;;1.67;;
40052;SDS011;25758;48.200;16.338;2023-05-07T01:02:38;2.85;;;1.40;;
40052;SDS011;25758;48.200;16.338;2023-05-07T01:05:05;3.70;;;1.73;;
40052;SDS011;25758;48.200;16.338;2023-05-07T01:07:32;5.25;;;1.50;;
40052;SDS011;25758;48.200;16.338;2023-05-07T01:09:59;2.75;;;1.48;;
40052;SDS011;25758;48.200;16.338;2023-05-07T01:12:26;3.72;;;1.27;;
40052;SDS011;25758;48.200;16.338;2023-05-07T01:14:53;2.58;;;1.17;;
40052;SDS011;25758;48.200;16.338;2023-05-07T01:17:19;2.20;;;0.88;;
40052;SDS011;25758;48.200;16.338;2023-05-07T01:19:44;2.72;;;0.43;;
40052;SDS011;25758;48.200;16.338;2023-05-07T01:22:11;1.38;;;0.70;;
40052;SDS011;25758;48.200;16.338;2023-05-07T01:24:37;1.30;;;0.52;;
40052;SDS011;25758;48.200;16.338;2023-05-07T01:27:03;1.92;;;0.60;;
40052;SDS011;25758;48.200;16.338;2023-05-07T01:29:29;2.05;;;0.63;;
40052;SDS011;25758;48.200;16.338;2023-05-07T01:31:59;1.27;;;0.40;;
40052;SDS011;25758;48.200;16.338;2023-05-07T01:34:27;3.88;;;0.75;;
40052;SDS011;25758;48.200;16.338;2023-05-07T01:36:55;4.63;;;0.90;;
40052;SDS011;25758;48.200;16.338;2023-05-07T01:39:26;4.53;;;0.88;;
40052;SDS011;25758;48.200;16.338;2023-05-07T01:41:54;2.42;;;0.50;;
40052;SDS011;25758;48.200;16.338;2023-05-07T01:44:21;0.93;;;0.50;;
40052;SDS011;25758;48.200;16.338;2023-05-07T01:46:48;0.85;;;0.47;;
40052;SDS011;25758;48.200;16.338;2023-05-07T01:49:14;1.17;;;0.50;;
40052;SDS011;25758;48.200;16.338;2023-05-07T01:51:41;2.80;;;0.68;;
40052;SDS011;25758;48.200;16.338;2023-05-07T01:54:07;0.80;;;0.30;;
40052;SDS011;25758;48.200;16.338;2023-05-07T01:56:33;0.90;;;0.40;;
40052;SDS011;25758;48.200;16.338;2023-05-07T01:58:59;2.13;;;0.63;;
40052;SDS011;25758;48.200;16.338;2023-05-07T02:01:24;1.20;;;0.70;;
40052;SDS011;25758;48.200;16.338;2023-05-07T02:03:50;1.42;;;0.65;;
40052;SDS011;25758;48.200;16.338;2023-05-07T02:06:16;4.38;;;0.60;;
40052;SDS011;25758;48.200;16.338;2023-05-07T02:08:41;1.30;;;0.63;;
40052;SDS011;25758;48.200;16.338;2023-05-07T02:11:07;1.50;;;0.60;;
40052;SDS011;25758;48.200;16.338;2023-05-07T02:13:33;1.55;;;0.68;;
40052;SDS011;25758;48.200;16.338;2023-05-07T02:16:02;1.60;;;0.70;;
40052;SDS011;25758;48.200;16.338;2023-05-07T02:18:28;2.05;;;0.40;;
40052;SDS011;25758;48.200;16.338;2023-05-07T02:20:54;1.35;;;0.40;;
40052;SDS011;25758;48.200;16.338;2023-05-07T02:23:19;1.48;;;0.45;;
40052;SDS011;25758;48.200;16.338;2023-05-07T02:25:45;1.52;;;0.50;;
40052;SDS011;25758;48.200;16.338;2023-05-07T02:28:11;1.58;;;0.63;;
40052;SDS011;25758;48.200;16.338;2023-05-07T02:30:37;1.85;;;0.75;;
40052;SDS011;25758;48.200;16.338;2023-05-07T02:33:03;2.85;;;1.10;;
40052;SDS011;25758;48.200;16.338;2023-05-07T02:35:29;2.25;;;0.68;;
40052;SDS011;25758;48.200;16.338;2023-05-07T02:37:54;4.70;;;0.88;;
40052;SDS011;25758;48.200;16.338;2023-05-07T02:40:20;4.82;;;1.00;;
40052;SDS011;25758;48.200;16.338;2023-05-07T02:42:45;1.98;;;0.70;;
40052;SDS011;25758;48.200;16.338;2023-05-07T02:45:11;2.22;;;0.80;;
40052;SDS011;25758;48.200;16.338;2023-05-07T02:47:37;2.97;;;1.10;;
40052;SDS011;25758;48.200;16.338;2023-05-07T02:50:02;1.80;;;0.80;;
40052;SDS011;25758;48.200;16.338;2023-05-07T02:52:29;2.33;;;0.90;;
40052;SDS011;25758;48.200;16.338;2023-05-07T02:54:54;2.13;;;0.70;;
40052;SDS011;25758;48.200;16.338;2023-05-07T02:57:20;10.52;;;1.42;;
40052;SDS011;25758;48.200;16.338;2023-05-07T02:59:45;8.77;;;2.70;;
40052;SDS011;25758;48.200;16.338;2023-05-07T03:02:11;2.63;;;1.00;;
40052;SDS011;25758;48.200;16.338;2023-05-07T03:04:37;2.00;;;1.08;;
40052;SDS011;25758;48.200;16.338;2023-05-07T03:07:06;6.35;;;1.88;;
40052;SDS011;25758;48.200;16.338;2023-05-07T03:09:31;3.38;;;1.25;;
40052;SDS011;25758;48.200;16.338;2023-05-07T03:11:57;1.92;;;1.25;;
40052;SDS011;25758;48.200;16.338;2023-05-07T03:14:22;2.35;;;1.42;;
40052;SDS011;25758;48.200;16.338;2023-05-07T03:16:48;3.10;;;1.95;;
40052;SDS011;25758;48.200;16.338;2023-05-07T03:19:15;2.28;;;1.77;;
40052;SDS011;25758;48.200;16.338;2023-05-07T03:21:40;1.80;;;1.10;;
40052;SDS011;25758;48.200;16.338;2023-05-07T03:24:06;4.25;;;1.90;;
40052;SDS011;25758;48.200;16.338;2023-05-07T03:26:32;3.38;;;2.58;;
40052;SDS011;25758;48.200;16.338;2023-05-07T03:28:57;6.05;;;3.25;;
40052;SDS011;25758;48.200;16.338;2023-05-07T03:31:23;6.00;;;2.90;;
40052;SDS011;25758;48.200;16.338;2023-05-07T03:33:52;9.73;;;3.40;;
40052;SDS011;25758;48.200;16.338;2023-05-07T03:36:19;6.22;;;4.45;;
40052;SDS011;25758;48.200;16.338;2023-05-07T03:38:45;7.78;;;5.63;;
40052;SDS011;25758;48.200;16.338;2023-05-07T03:41:11;7.65;;;5.57;;
40052;SDS011;25758;48.200;16.338;2023-05-07T03:43:37;5.78;;;4.20;;
40052;SDS011;25758;48.200;16.338;2023-05-07T03:46:02;7.90;;;3.65;;
40052;SDS011;25758;48.200;16.338;2023-05-07T03:48:28;6.30;;;4.15;;
40052;SDS011;25758;48.200;16.338;2023-05-07T03:50:55;10.35;;;4.63;;
40052;SDS011;25758;48.200;16.338;2023-05-07T03:53:22;6.43;;;4.45;;
40052;SDS011;25758;48.200;16.338;2023-05-07T03:55:48;5.90;;;4.10;;
40052;SDS011;25758;48.200;16.338;2023-05-07T03:58:14;5.65;;;4.35;;
40052;SDS011;25758;48.200;16.338;2023-05-07T04:00:40;11.52;;;5.32;;
40052;SDS011;25758;48.200;16.338;2023-05-07T04:03:06;5.47;;;4.10;;
40052;SDS011;25758;48.200;16.338;2023-05-07T04:05:32;8.55;;;5.63;;
40052;SDS011;25758;48.200;16.338;2023-05-07T04:07:58;8.85;;;5.85;;
40052;SDS011;25758;48.200;16.338;2023-05-07T04:10:24;8.43;;;5.82;;
40052;SDS011;25758;48.200;16.338;2023-05-07T04:12:50;13.43;;;6.55;;
40052;SDS011;25758;48.200;16.338;2023-05-07T04:15:16;10.32;;;7.07;;
40052;SDS011;25758;48.200;16.338;2023-05-07T04:17:41;8.57;;;6.15;;
40052;SDS011;25758;48.200;16.338;2023-05-07T04:20:12;12.80;;;7.57;;
40052;SDS011;25758;48.200;16.338;2023-05-07T04:22:42;10.38;;;7.85;;
40052;SDS011;25758;48.200;16.338;2023-05-07T04:25:08;10.55;;;8.10;;
40052;SDS011;25758;48.200;16.338;2023-05-07T04:27:34;13.55;;;8.52;;
40052;SDS011;25758;48.200;16.338;2023-05-07T04:30:01;8.88;;;7.18;;
40052;SDS011;25758;48.200;16.338;2023-05-07T04:32:27;12.20;;;7.70;;
40052;SDS011;25758;48.200;16.338;2023-05-07T04:34:54;7.95;;;6.45;;
40052;SDS011;25758;48.200;16.338;2023-05-07T04:37:20;8.05;;;6.88;;
40052;SDS011;25758;48.200;16.338;2023-05-07T04:39:46;8.38;;;6.75;;
40052;SDS011;25758;48.200;16.338;2023-05-07T04:42:16;8.60;;;6.80;;
40052;SDS011;25758;48.200;16.338;2023-05-07T04:44:43;8.48;;;7.32;;
40052;SDS011;25758;48.200;16.338;2023-05-07T04:47:09;9.20;;;6.90;;
40052;SDS011;25758;48.200;16.338;2023-05-07T04:49:35;8.32;;;6.18;;
40052;SDS011;25758;48.200;16.338;2023-05-07T04:52:01;9.70;;;6.43;;
40052;SDS011;25758;48.200;16.338;2023-05-07T04:54:28;9.88;;;7.22;;
40052;SDS011;25758;48.200;16.338;2023-05-07T04:56:54;13.15;;;9.07;;
40052;SDS011;25758;48.200;16.338;2023-05-07T04:59:20;12.18;;;8.32;;
40052;SDS011;25758;48.200;16.338;2023-05-07T05:01:46;16.48;;;10.73;;
40052;SDS011;25758;48.200;16.338;2023-05-07T05:04:11;12.38;;;10.30;;
40052;SDS011;25758;48.200;16.338;2023-05-07T05:06:38;17.10;;;11.65;;
40052;SDS011;25758;48.200;16.338;2023-05-07T05:09:03;13.35;;;10.20;;
40052;SDS011;25758;48.200;16.338;2023-05-07T05:11:30;13.90;;;10.63;;
40052;SDS011;25758;48.200;16.338;2023-05-07T05:13:56;12.65;;;10.23;;
40052;SDS011;25758;48.200;16.338;2023-05-07T05:16:21;12.05;;;9.95;;
40052;SDS011;25758;48.200;16.338;2023-05-07T05:18:47;16.88;;;10.80;;
40052;SDS011;25758;48.200;16.338;2023-05-07T05:21:13;17.35;;;11.05;;
40052;SDS011;25758;48.200;16.338;2023-05-07T05:23:38;16.48;;;10.75;;
40052;SDS011;25758;48.200;16.338;2023-05-07T05:26:04;14.48;;;10.88;;
40052;SDS011;25758;48.200;16.338;2023-05-07T05:28:29;16.75;;;11.25;;
40052;SDS011;25758;48.200;16.338;2023-05-07T05:30:55;16.05;;;12.48;;
40052;SDS011;25758;48.200;16.338;2023-05-07T05:33:21;16.13;;;12.70;;
40052;SDS011;25758;48.200;16.338;2023-05-07T05:35:46;20.45;;;13.32;;
40052;SDS011;25758;48.200;16.338;2023-05-07T05:38:12;18.95;;;13.00;;
40052;SDS011;25758;48.200;16.338;2023-05-07T05:40:38;16.35;;;12.68;;
40052;SDS011;25758;48.200;16.338;2023-05-07T05:43:03;14.90;;;12.15;;
40052;SDS011;25758;48.200;16.338;2023-05-07T05:45:29;19.90;;;14.70;;
40052;SDS011;25758;48.200;16.338;2023-05-07T05:47:55;23.65;;;14.98;;
40052;SDS011;25758;48.200;16.338;2023-05-07T05:50:21;17.67;;;13.50;;
40052;SDS011;25758;48.200;16.338;2023-05-07T05:52:47;18.38;;;14.35;;
40052;SDS011;25758;48.200;16.338;2023-05-07T05:55:13;17.98;;;13.85;;
40052;SDS011;25758;48.200;16.338;2023-05-07T05:57:38;17.38;;;14.27;;
40052;SDS011;25758;48.200;16.338;2023-05-07T06:00:05;20.42;;;15.60;;
40052;SDS011;25758;48.200;16.338;2023-05-07T06:02:31;23.38;;;14.82;;
40052;SDS011;25758;48.200;16.338;2023-05-07T06:04:57;20.50;;;15.02;;
40052;SDS011;25758;48.200;16.338;2023-05-07T06:07:23;17.90;;;14.43;;
40052;SDS011;25758;48.200;16.338;2023-05-07T06:09:48;17.67;;;13.82;;
40052;SDS011;25758;48.200;16.338;2023-05-07T06:12:14;17.23;;;13.90;;
40052;SDS011;25758;48.200;16.338;2023-05-07T06:14:39;19.00;;;14.23;;
40052;SDS011;25758;48.200;16.338;2023-05-07T06:17:07;14.98;;;11.38;;
40052;SDS011;25758;48.200;16.338;2023-05-07T06:19:33;14.23;;;11.85;;
40052;SDS011;25758;48.200;16.338;2023-05-07T06:21:58;15.05;;;11.50;;
40052;SDS011;25758;48.200;16.338;2023-05-07T06:24:26;18.45;;;13.05;;
40052;SDS011;25758;48.200;16.338;2023-05-07T06:26:51;17.23;;;13.32;;
40052;SDS011;25758;48.200;16.338;2023-05-07T06:29:17;15.82;;;12.52;;
40052;SDS011;25758;48.200;16.338;2023-05-07T06:31:43;15.57;;;12.20;;
40052;SDS011;25758;48.200;16.338;2023-05-07T06:34:09;17.05;;;13.07;;
40052;SDS011;25758;48.200;16.338;2023-05-07T06:36:39;17.05;;;13.05;;
40052;SDS011;25758;48.200;16.338;2023-05-07T06:39:07;15.90;;;13.18;;
40052;SDS011;25758;48.200;16.338;2023-05-07T06:41:33;15.70;;;12.75;;
40052;SDS011;25758;48.200;16.338;2023-05-07T06:43:59;19.70;;;12.15;;
40052;SDS011;25758;48.200;16.338;2023-05-07T06:46:25;15.23;;;12.13;;
40052;SDS011;25758;48.200;16.338;2023-05-07T06:48:50;16.45;;;12.55;;
40052;SDS011;25758;48.200;16.338;2023-05-07T06:51:17;14.57;;;11.45;;
40052;SDS011;25758;48.200;16.338;2023-05-07T06:53:42;16.63;;;12.82;;
40052;SDS011;25758;48.200;16.338;2023-05-07T06:56:08;16.80;;;13.20;;
40052;SDS011;25758;48.200;16.338;2023-05-07T06:58:33;17.75;;;13.27;;
40052;SDS011;25758;48.200;16.338;2023-05-07T07:00:59;16.77;;;13.45;;
40052;SDS011;25758;48.200;16.338;2023-05-07T07:03:25;14.73;;;12.18;;
40052;SDS011;25758;48.200;16.338;2023-05-07T07:05:54;16.02;;;13.15;;
40052;SDS011;25758;48.200;16.338;2023-05-07T07:08:20;16.88;;;13.63;;
40052;SDS011;25758;48.200;16.338;2023-05-07T07:10:47;17.15;;;13.35;;
40052;SDS011;25758;48.200;16.338;2023-05-07T07:13:12;18.75;;;14.02;;
40052;SDS011;25758;48.200;16.338;2023-05-07T07:15:38;17.80;;;13.88;;
40052;SDS011;25758;48.200;16.338;2023-05-07T07:18:05;18.30;;;14.02;;
40052;SDS011;25758;48.200;16.338;2023-05-07T07:20:30;14.98;;;12.23;;
40052;SDS011;25758;48.200;16.338;2023-05-07T07:22:56;17.00;;;13.07;;
40052;SDS011;25758;48.200;16.338;2023-05-07T07:25:22;14.45;;;11.95;;
40052;SDS011;25758;48.200;16.338;2023-05-07T07:27:48;19.50;;;12.77;;
40052;SDS011;25758;48.200;16.338;2023-05-07T07:30:14;20.23;;;12.20;;
40052;SDS011;25758;48.200;16.338;2023-05-07T07:32:40;18.95;;;13.18;;
40052;SDS011;25758;48.200;16.338;2023-05-07T07:35:05;16.05;;;11.45;;
40052;SDS011;25758;48.200;16.338;2023-05-07T07:37:32;14.40;;;10.85;;
40052;SDS011;25758;48.200;16.338;2023-05-07T07:39:57;13.48;;;11.02;;
40052;SDS011;25758;48.200;16.338;2023-05-07T07:42:23;16.45;;;12.57;;
40052;SDS011;25758;48.200;16.338;2023-05-07T07:44:48;13.32;;;10.98;;
40052;SDS011;25758;48.200;16.338;2023-05-07T07:47:14;15.82;;;10.82;;
40052;SDS011;25758;48.200;16.338;2023-05-07T07:49:40;12.23;;;10.02;;
40052;SDS011;25758;48.200;16.338;2023-05-07T07:52:05;16.20;;;11.35;;
40052;SDS011;25758;48.200;16.338;2023-05-07T07:54:31;12.65;;;10.68;;
40052;SDS011;25758;48.200;16.338;2023-05-07T07:56:57;16.50;;;10.43;;
40052;SDS011;25758;48.200;16.338;2023-05-07T07:59:23;15.35;;;10.65;;
40052;SDS011;25758;48.200;16.338;2023-05-07T08:01:48;15.43;;;11.77;;
40052;SDS011;25758;48.200;16.338;2023-05-07T08:04:15;18.40;;;11.43;;
40052;SDS011;25758;48.200;16.338;2023-05-07T08:06:41;14.52;;;10.10;;
40052;SDS011;25758;48.200;16.338;2023-05-07T08:09:07;12.40;;;10.02;;
40052;SDS011;25758;48.200;16.338;2023-05-07T08:11:33;12.32;;;9.75;;
40052;SDS011;25758;48.200;16.338;2023-05-07T08:13:59;16.35;;;11.02;;
40052;SDS011;25758;48.200;16.338;2023-05-07T08:16:25;15.65;;;11.18;;
40052;SDS011;25758;48.200;16.338;2023-05-07T08:18:50;14.77;;;11.43;;
40052;SDS011;25758;48.200;16.338;2023-05-07T08:21:16;13.40;;;10.70;;
40052;SDS011;25758;48.200;16.338;2023-05-07T08:23:42;16.15;;;11.20;;
40052;SDS011;25758;48.200;16.338;2023-05-07T08:26:08;12.77;;;9.63;;
40052;SDS011;25758;48.200;16.338;2023-05-07T08:28:34;12.35;;;9.55;;
40052;SDS011;25758;48.200;16.338;2023-05-07T08:31:00;15.95;;;11.20;;
40052;SDS011;25758;48.200;16.338;2023-05-07T08:33:26;12.60;;;9.95;;
40052;SDS011;25758;48.200;16.338;2023-05-07T08:35:51;12.45;;;9.95;;
40052;SDS011;25758;48.200;16.338;2023-05-07T08:38:17;13.50;;;10.43;;
40052;SDS011;25758;48.200;16.338;2023-05-07T08:40:42;12.35;;;9.65;;
40052;SDS011;25758;48.200;16.338;2023-05-07T08:43:08;12.23;;;9.88;;
40052;SDS011;25758;48.200;16.338;2023-05-07T08:45:40;10.82;;;8.93;;
40052;SDS011;25758;48.200;16.338;2023-05-07T08:48:09;11.25;;;8.80;;
40052;SDS011;25758;48.200;16.338;2023-05-07T08:50:40;12.50;;;9.52;;
40052;SDS011;25758;48.200;16.338;2023-05-07T08:53:06;10.10;;;8.50;;
40052;SDS011;25758;48.200;16.338;2023-05-07T08:55:31;10.30;;;7.38;;
40052;SDS011;25758;48.200;16.338;2023-05-07T08:57:58;12.23;;;8.73;;
40052;SDS011;25758;48.200;16.338;2023-05-07T09:00:24;10.60;;;9.25;;
40052;SDS011;25758;48.200;16.338;2023-05-07T09:02:52;9.90;;;7.45;;
40052;SDS011;25758;48.200;16.338;2023-05-07T09:05:18;10.00;;;7.88;;
40052;SDS011;25758;48.200;16.338;2023-05-07T09:07:45;10.75;;;8.13;;
40052;SDS011;25758;48.200;16.338;2023-05-07T09:10:11;12.82;;;8.48;;
40052;SDS011;25758;48.200;16.338;2023-05-07T09:12:38;9.80;;;7.65;;
40052;SDS011;25758;48.200;16.338;2023-05-07T09:15:04;8.25;;;7.32;;
40052;SDS011;25758;48.200;16.338;2023-05-07T09:17:30;9.90;;;7.68;;
40052;SDS011;25758;48.200;16.338;2023-05-07T09:19:56;9.48;;;7.57;;
40052;SDS011;25758;48.200;16.338;2023-05-07T09:22:29;13.73;;;8.55;;
40052;SDS011;25758;48.200;16.338;2023-05-07T09:24:57;11.73;;;8.35;;
40052;SDS011;25758;48.200;16.338;2023-05-07T09:27:22;13.98;;;7.63;;
40052;SDS011;25758;48.200;16.338;2023-05-07T09:29:48;11.68;;;9.35;;
40052;SDS011;25758;48.200;16.338;2023-05-07T09:32:13;13.27;;;9.13;;
40052;SDS011;25758;48.200;16.338;2023-05-07T09:34:41;12.45;;;8.75;;
40052;SDS011;25758;48.200;16.338;2023-05-07T09:37:07;15.35;;;10.63;;
40052;SDS011;25758;48.200;16.338;2023-05-07T09:39:46;16.95;;;8.57;;
40052;SDS011;25758;48.200;16.338;2023-05-07T09:42:14;12.15;;;8.05;;
40052;SDS011;25758;48.200;16.338;2023-05-07T09:44:40;12.50;;;9.18;;
40052;SDS011;25758;48.200;16.338;2023-05-07T09:47:08;14.50;;;8.27;;
40052;SDS011;25758;48.200;16.338;2023-05-07T09:49:35;12.50;;;9.15;;
40052;SDS011;25758;48.200;16.338;2023-05-07T09:52:03;9.57;;;7.72;;
40052;SDS011;25758;48.200;16.338;2023-05-07T09:54:34;12.05;;;8.02;;
40052;SDS011;25758;48.200;16.338;2023-05-07T09:57:03;9.65;;;7.38;;
40052;SDS011;25758;48.200;16.338;2023-05-07T09:59:31;9.68;;;6.45;;
40052;SDS011;25758;48.200;16.338;2023-05-07T10:01:58;8.57;;;5.60;;
40052;SDS011;25758;48.200;16.338;2023-05-07T10:04:25;8.95;;;6.00;;
40052;SDS011;25758;48.200;16.338;2023-05-07T10:06:51;6.50;;;5.82;;
40052;SDS011;25758;48.200;16.338;2023-05-07T10:09:18;9.70;;;5.90;;
40052;SDS011;25758;48.200;16.338;2023-05-07T10:11:44;8.98;;;6.20;;
40052;SDS011;25758;48.200;16.338;2023-05-07T10:14:10;8.27;;;5.07;;
40052;SDS011;25758;48.200;16.338;2023-05-07T10:16:36;8.45;;;6.15;;
40052;SDS011;25758;48.200;16.338;2023-05-07T10:19:03;8.55;;;6.18;;
40052;SDS011;25758;48.200;16.338;2023-05-07T10:21:30;7.40;;;5.90;;
40052;SDS011;25758;48.200;16.338;2023-05-07T10:23:59;8.80;;;5.68;;
40052;SDS011;25758;48.200;16.338;2023-05-07T10:26:28;8.80;;;5.95;;
40052;SDS011;25758;48.200;16.338;2023-05-07T10:28:58;7.60;;;6.05;;
40052;SDS011;25758;48.200;16.338;2023-05-07T10:34:10;7.13;;;5.38;;
40052;SDS011;25758;48.200;16.338;2023-05-07T10:36:39;9.32;;;6.15;;
40052;SDS011;25758;48.200;16.338;2023-05-07T10:39:05;9.07;;;6.50;;
40052;SDS011;25758;48.200;16.338;2023-05-07T10:41:31;8.90;;;5.68;;
40052;SDS011;25758;48.200;16.338;2023-05-07T10:43:57;7.80;;;5.45;;
40052;SDS011;25758;48.200;16.338;2023-05-07T10:46:26;9.98;;;7.18;;
40052;SDS011;25758;48.200;16.338;2023-05-07T10:51:31;9.85;;;6.50;;
40052;SDS011;25758;48.200;16.338;2023-05-07T10:56:39;10.27;;;6.50;;
40052;SDS011;25758;48.200;16.338;2023-05-07T11:02:04;12.45;;;8.55;;
40052;SDS011;25758;48.200;16.338;2023-05-07T11:04:32;8.55;;;6.72;;
40052;SDS011;25758;48.200;16.338;2023-05-07T11:15:03;9.05;;;7.07;;
40052;SDS011;25758;48.200;16.338;2023-05-07T11:17:30;8.77;;;6.85;;
40052;SDS011;25758;48.200;16.338;2023-05-07T11:19:59;11.77;;;6.25;;
40052;SDS011;25758;48.200;16.338;2023-05-07T11:25:04;7.80;;;5.53;;
40052;SDS011;25758;48.200;16.338;2023-05-07T11:27:30;10.90;;;5.53;;
40052;SDS011;25758;48.200;16.338;2023-05-07T11:29:57;7.45;;;5.88;;
40052;SDS011;25758;48.200;16.338;2023-05-07T11:34:53;6.20;;;5.07;;
40052;SDS011;25758;48.200;16.338;2023-05-07T11:37:20;7.57;;;5.25;;
40052;SDS011;25758;48.200;16.338;2023-05-07T11:39:46;8.35;;;5.05;;
40052;SDS011;25758;48.200;16.338;2023-05-07T11:42:31;6.53;;;5.07;;
40052;SDS011;25758;48.200;16.338;2023-05-07T11:44:58;7.75;;;5.90;;
40052;SDS011;25758;48.200;16.338;2023-05-07T11:47:24;7.95;;;4.55;;
40052;SDS011;25758;48.200;16.338;2023-05-07T11:49:53;7.70;;;5.80;;
40052;SDS011;25758;48.200;16.338;2023-05-07T11:52:20;5.57;;;4.65;;
40052;SDS011;25758;48.200;16.338;2023-05-07T11:54:50;6.15;;;4.88;;
40052;SDS011;25758;48.200;16.338;2023-05-07T11:57:21;8.70;;;4.75;;
40052;SDS011;25758;48.200;16.338;2023-05-07T11:59:48;5.85;;;4.95;;
40052;SDS011;25758;48.200;16.338;2023-05-07T12:02:17;7.60;;;5.15;;
40052;SDS011;25758;48.200;16.338;2023-05-07T12:04:43;9.88;;;5.30;;
40052;SDS011;25758;48.200;16.338;2023-05-07T12:07:12;7.55;;;4.85;;
40052;SDS011;25758;48.200;16.338;2023-05-07T12:09:43;7.47;;;5.38;;
40052;SDS011;25758;48.200;16.338;2023-05-07T12:12:13;6.65;;;5.00;;
40052;SDS011;25758;48.200;16.338;2023-05-07T12:14:43;5.97;;;4.47;;
40052;SDS011;25758;48.200;16.338;2023-05-07T12:17:10;7.95;;;5.13;;
40052;SDS011;25758;48.200;16.338;2023-05-07T12:19:37;6.15;;;4.80;;
40052;SDS011;25758;48.200;16.338;2023-05-07T12:22:05;10.15;;;7.20;;
40052;SDS011;25758;48.200;16.338;2023-05-07T12:24:57;7.70;;;5.50;;
40052;SDS011;25758;48.200;16.338;2023-05-07T12:27:22;9.45;;;4.95;;
40052;SDS011;25758;48.200;16.338;2023-05-07T12:29:48;8.55;;;5.53;;
40052;SDS011;25758;48.200;16.338;2023-05-07T12:32:15;6.00;;;4.78;;
40052;SDS011;25758;48.200;16.338;2023-05-07T12:34:42;7.07;;;5.53;;
40052;SDS011;25758;48.200;16.338;2023-05-07T12:37:09;9.85;;;6.18;;
40052;SDS011;25758;48.200;16.338;2023-05-07T12:39:35;9.93;;;4.93;;
40052;SDS011;25758;48.200;16.338;2023-05-07T12:42:00;9.00;;;5.90;;
40052;SDS011;25758;48.200;16.338;2023-05-07T12:44:30;7.50;;;5.95;;
40052;SDS011;25758;48.200;16.338;2023-05-07T12:46:57;8.80;;;5.05;;
40052;SDS011;25758;48.200;16.338;2023-05-07T12:49:23;6.63;;;4.68;;
40052;SDS011;25758;48.200;16.338;2023-05-07T12:51:49;8.15;;;5.00;;
40052;SDS011;25758;48.200;16.338;2023-05-07T12:54:28;6.50;;;4.72;;
40052;SDS011;25758;48.200;16.338;2023-05-07T12:57:27;6.10;;;4.82;;
40052;SDS011;25758;48.200;16.338;2023-05-07T12:59:46;9.63;;;5.25;;
40052;SDS011;25758;48.200;16.338;2023-05-07T13:02:12;7.60;;;4.88;;
40052;SDS011;25758;48.200;16.338;2023-05-07T13:04:37;6.47;;;4.82;;
40052;SDS011;25758;48.200;16.338;2023-05-07T13:07:03;4.95;;;3.30;;
40052;SDS011;25758;48.200;16.338;2023-05-07T13:09:29;7.32;;;3.55;;
40052;SDS011;25758;48.200;16.338;2023-05-07T13:11:55;4.25;;;2.97;;
40052;SDS011;25758;48.200;16.338;2023-05-07T13:14:21;7.43;;;4.28;;
40052;SDS011;25758;48.200;16.338;2023-05-07T13:16:47;5.72;;;3.95;;
40052;SDS011;25758;48.200;16.338;2023-05-07T13:19:13;4.97;;;4.07;;
40052;SDS011;25758;48.200;16.338;2023-05-07T13:21:38;6.63;;;3.75;;
40052;SDS011;25758;48.200;16.338;2023-05-07T13:24:04;4.90;;;3.78;;
40052;SDS011;25758;48.200;16.338;2023-05-07T13:26:30;5.45;;;3.75;;
40052;SDS011;25758;48.200;16.338;2023-05-07T13:28:56;6.35;;;3.67;;
40052;SDS011;25758;48.200;16.338;2023-05-07T13:31:22;5.88;;;3.08;;
40052;SDS011;25758;48.200;16.338;2023-05-07T13:33:48;4.85;;;3.88;;
40052;SDS011;25758;48.200;16.338;2023-05-07T13:36:14;4.85;;;3.58;;
40052;SDS011;25758;48.200;16.338;2023-05-07T13:38:40;6.40;;;3.97;;
40052;SDS011;25758;48.200;16.338;2023-05-07T13:41:05;5.90;;;4.28;;
40052;SDS011;25758;48.200;16.338;2023-05-07T13:43:31;6.18;;;4.18;;
40052;SDS011;25758;48.200;16.338;2023-05-07T13:45:58;4.95;;;3.60;;
40052;SDS011;25758;48.200;16.338;2023-05-07T13:48:24;5.28;;;3.60;;
40052;SDS011;25758;48.200;16.338;2023-05-07T13:50:50;4.53;;;3.40;;
40052;SDS011;25758;48.200;16.338;2023-05-07T13:53:16;4.80;;;3.63;;
40052;SDS011;25758;48.200;16.338;2023-05-07T13:55:43;5.82;;;3.13;;
40052;SDS011;25758;48.200;16.338;2023-05-07T13:58:09;5.13;;;3.50;;
40052;SDS011;25758;48.200;16.338;2023-05-07T14:00:34;5.90;;;3.00;;
40052;SDS011;25758;48.200;16.338;2023-05-07T14:03:00;3.50;;;2.55;;
40052;SDS011;25758;48.200;16.338;2023-05-07T14:05:26;3.92;;;2.78;;
40052;SDS011;25758;48.200;16.338;2023-05-07T14:07:53;7.55;;;3.15;;
40052;SDS011;25758;48.200;16.338;2023-05-07T14:10:22;6.00;;;3.22;;
40052;SDS011;25758;48.200;16.338;2023-05-07T14:12:48;4.07;;;3.47;;
40052;SDS011;25758;48.200;16.338;2023-05-07T14:15:13;7.13;;;3.63;;
40052;SDS011;25758;48.200;16.338;2023-05-07T14:17:40;5.90;;;4.10;;
40052;SDS011;25758;48.200;16.338;2023-05-07T14:20:06;4.40;;;2.80;;
40052;SDS011;25758;48.200;16.338;2023-05-07T14:22:33;7.13;;;3.33;;
40052;SDS011;25758;48.200;16.338;2023-05-07T14:24:58;5.30;;;3.22;;
40052;SDS011;25758;48.200;16.338;2023-05-07T14:27:24;5.03;;;2.85;;
40052;SDS011;25758;48.200;16.338;2023-05-07T14:29:49;3.67;;;2.80;;
40052;SDS011;25758;48.200;16.338;2023-05-07T14:32:19;6.28;;;3.40;;
40052;SDS011;25758;48.200;16.338;2023-05-07T14:34:45;4.68;;;3.22;;
40052;SDS011;25758;48.200;16.338;2023-05-07T14:37:10;3.80;;;3.03;;
40052;SDS011;25758;48.200;16.338;2023-05-07T14:39:36;3.78;;;2.88;;
40052;SDS011;25758;48.200;16.338;2023-05-07T14:42:02;4.28;;;3.45;;
40052;SDS011;25758;48.200;16.338;2023-05-07T14:44:27;5.70;;;3.30;;
40052;SDS011;25758;48.200;16.338;2023-05-07T14:46:53;4.72;;;2.67;;